Time,TemperatureF,DewpointF,PressureIn,WindDirection,WindDirectionDegrees,WindSpeedMPH,WindSpeedGustMPH,Humidity,HourlyPrecipIn,Conditions,Clouds,dailyrainin,SoftwareType,DateUTC
2013-04-24 00:06:00,41.2,38.8,30.18,WSW,247,3.1,-999.0,91,-99.99,,,0.00,Acu-Link.com,2013-04-24 05:06:00,
2013-04-24 00:21:00,41.2,38.8,30.18,SSW,202,2.7,-999.0,91,-99.99,,,0.00,Acu-Link.com,2013-04-24 05:21:00,
2013-04-24 00:36:00,41.0,38.6,30.19,WNW,292,3.1,-999.0,91,-99.99,,,0.00,Acu-Link.com,2013-04-24 05:36:00,
2013-04-24 00:51:00,41.0,38.6,30.18,NNE,22,2.7,-999.0,91,-99.99,,,0.00,Acu-Link.com,2013-04-24 05:51:00,
2013-04-24 01:07:00,41.2,38.5,30.18,WNW,292,4.3,-999.0,90,-99.99,,,0.00,Acu-Link.com,2013-04-24 06:07:00,
2013-04-24 01:22:00,41.0,38.3,30.18,WNW,292,4.3,-999.0,90,-99.99,,,0.00,Acu-Link.com,2013-04-24 06:22:00,
2013-04-24 01:37:00,41.2,37.6,30.17,South,180,5.8,-999.0,87,-99.99,,,0.01,Acu-Link.com,2013-04-24 06:37:00,
2013-04-24 01:52:00,41.2,37.9,30.19,North,0,2.7,-999.0,88,-99.99,,,0.01,Acu-Link.com,2013-04-24 06:52:00,
2013-04-24 02:07:00,40.8,37.8,30.18,West,270,4.7,-999.0,89,-99.99,,,0.01,Acu-Link.com,2013-04-24 07:07:00,
2013-04-24 02:23:00,40.5,37.8,30.17,SSW,202,4.3,-999.0,90,-99.99,,,0.01,Acu-Link.com,2013-04-24 07:23:00,
2013-04-24 02:38:00,40.5,37.5,30.20,West,270,3.8,-999.0,89,-99.99,,,0.01,Acu-Link.com,2013-04-24 07:38:00,
2013-04-24 02:53:00,40.5,37.2,30.19,South,180,3.8,-999.0,88,-99.99,,,0.01,Acu-Link.com,2013-04-24 07:53:00,
2013-04-24 03:08:00,40.6,37.1,30.21,North,0,2.7,-999.0,87,-99.99,,,0.01,Acu-Link.com,2013-04-24 08:08:00,
2013-04-24 03:23:00,40.5,36.9,30.21,WSW,247,2.7,-999.0,87,-99.99,,,0.01,Acu-Link.com,2013-04-24 08:23:00,
2013-04-24 03:39:00,40.5,36.0,30.22,NW,315,2.7,-999.0,84,-99.99,,,0.01,Acu-Link.com,2013-04-24 08:39:00,
2013-04-24 03:54:00,40.5,35.7,30.22,West,270,2.2,-999.0,83,-99.99,,,0.01,Acu-Link.com,2013-04-24 08:54:00,
2013-04-24 04:09:00,40.5,35.7,30.22,WNW,292,4.7,-999.0,83,-99.99,,,0.01,Acu-Link.com,2013-04-24 09:09:00,
2013-04-24 04:24:00,40.5,35.4,30.22,West,270,2.2,-999.0,82,-99.99,,,0.01,Acu-Link.com,2013-04-24 09:24:00,
2013-04-24 04:39:00,40.5,35.1,30.23,West,270,3.8,-999.0,81,-99.99,,,0.01,Acu-Link.com,2013-04-24 09:39:00,
2013-04-24 04:55:00,40.3,35.2,30.23,West,270,2.7,-999.0,82,-99.99,,,0.01,Acu-Link.com,2013-04-24 09:55:00,
2013-04-24 05:10:00,40.1,34.4,30.23,SW,225,2.7,-999.0,80,-99.99,,,0.01,Acu-Link.com,2013-04-24 10:10:00,
2013-04-24 05:25:00,39.9,34.6,30.23,West,270,3.1,-999.0,81,-99.99,,,0.01,Acu-Link.com,2013-04-24 10:25:00,
2013-04-24 05:40:00,40.1,34.7,30.24,South,180,5.8,-999.0,81,-99.99,,,0.01,Acu-Link.com,2013-04-24 10:40:00,
2013-04-24 05:56:00,39.6,34.2,30.25,SSE,157,2.2,-999.0,81,-99.99,,,0.01,Acu-Link.com,2013-04-24 10:56:00,
2013-04-24 06:11:00,39.2,33.6,30.25,WNW,292,2.7,-999.0,80,-99.99,,,0.01,Acu-Link.com,2013-04-24 11:11:00,
2013-04-24 06:26:00,38.7,33.0,30.26,WNW,292,3.1,-999.0,80,-99.99,,,0.01,Acu-Link.com,2013-04-24 11:26:00,
2013-04-24 06:41:00,38.7,32.7,30.27,West,270,2.7,-999.0,79,-99.99,,,0.01,Acu-Link.com,2013-04-24 11:41:00,
2013-04-24 06:56:00,38.8,32.3,30.27,South,180,2.7,-999.0,77,-99.99,,,0.01,Acu-Link.com,2013-04-24 11:56:00,
2013-04-24 07:12:00,38.8,32.9,30.27,SSW,202,3.1,-999.0,79,-99.99,,,0.01,Acu-Link.com,2013-04-24 12:12:00,
2013-04-24 07:27:00,38.5,32.9,30.27,East,90,2.2,-999.0,80,-99.99,,,0.01,Acu-Link.com,2013-04-24 12:27:00,
2013-04-24 07:42:00,38.7,33.0,30.27,WNW,292,1.6,-999.0,80,-99.99,,,0.01,Acu-Link.com,2013-04-24 12:42:00,
2013-04-24 07:57:00,39.4,33.4,30.28,SSE,157,2.7,-999.0,79,-99.99,,,0.01,Acu-Link.com,2013-04-24 12:57:00,
2013-04-24 08:12:00,40.5,33.8,30.28,SW,225,2.2,-999.0,77,-99.99,,,0.01,Acu-Link.com,2013-04-24 13:12:00,
2013-04-24 08:28:00,42.1,34.1,30.29,SE,135,2.7,-999.0,73,-99.99,,,0.01,Acu-Link.com,2013-04-24 13:28:00,
2013-04-24 08:43:00,44.1,34.9,30.29,WSW,247,2.2,-999.0,70,-99.99,,,0.01,Acu-Link.com,2013-04-24 13:43:00,
2013-04-24 08:58:00,44.6,35.4,30.29,SSE,157,2.7,-999.0,70,-99.99,,,0.01,Acu-Link.com,2013-04-24 13:58:00,
2013-04-24 09:13:00,45.3,35.8,30.29,SSW,202,2.2,-999.0,69,-99.99,,,0.01,Acu-Link.com,2013-04-24 14:13:00,
2013-04-24 09:28:00,46.8,36.0,30.30,West,270,3.1,-999.0,66,-99.99,,,0.01,Acu-Link.com,2013-04-24 14:28:00,
2013-04-24 09:44:00,47.3,34.9,30.30,South,180,4.3,-999.0,62,-99.99,,,0.01,Acu-Link.com,2013-04-24 14:44:00,
2013-04-24 09:59:00,48.2,35.4,30.30,SSE,157,1.6,-999.0,61,-99.99,,,0.01,Acu-Link.com,2013-04-24 14:59:00,
2013-04-24 10:14:00,49.5,35.3,30.31,ENE,67,3.8,-999.0,58,-99.99,,,0.01,Acu-Link.com,2013-04-24 15:14:00,
2013-04-24 10:29:00,49.6,35.0,30.30,WNW,292,2.7,-999.0,57,-99.99,,,0.01,Acu-Link.com,2013-04-24 15:29:00,
2013-04-24 10:45:00,50.2,36.4,30.30,SSE,157,3.1,-999.0,59,-99.99,,,0.01,Acu-Link.com,2013-04-24 15:45:00,
2013-04-24 11:00:00,51.4,37.2,30.30,SSE,157,4.7,-999.0,58,-99.99,,,0.01,Acu-Link.com,2013-04-24 16:00:00,
2013-04-24 11:15:00,51.8,36.6,30.30,SE,135,2.2,-999.0,56,-99.99,,,0.01,Acu-Link.com,2013-04-24 16:15:00,
2013-04-24 11:30:00,53.4,37.2,30.30,South,180,2.7,-999.0,54,-99.99,,,0.01,Acu-Link.com,2013-04-24 16:30:00,
2013-04-24 11:45:00,53.2,36.6,30.29,SW,225,2.7,-999.0,53,-99.99,,,0.01,Acu-Link.com,2013-04-24 16:45:00,
2013-04-24 12:01:00,54.0,36.2,30.29,West,270,2.2,-999.0,51,-99.99,,,0.01,Acu-Link.com,2013-04-24 17:01:00,
2013-04-24 12:16:00,54.9,37.1,30.28,SW,225,5.1,-999.0,51,-99.99,,,0.01,Acu-Link.com,2013-04-24 17:16:00,
2013-04-24 12:31:00,55.0,37.2,30.28,South,180,2.7,-999.0,51,-99.99,,,0.01,Acu-Link.com,2013-04-24 17:31:00,
2013-04-24 12:46:00,55.9,38.1,30.27,West,270,3.8,-999.0,51,-99.99,,,0.01,Acu-Link.com,2013-04-24 17:46:00,
2013-04-24 13:01:00,57.6,38.5,30.27,South,180,2.7,-999.0,49,-99.99,,,0.01,Acu-Link.com,2013-04-24 18:01:00,
2013-04-24 13:17:00,57.7,38.7,30.26,SW,225,3.1,-999.0,49,-99.99,,,0.01,Acu-Link.com,2013-04-24 18:17:00,
2013-04-24 13:32:00,58.5,39.4,30.25,SW,225,4.3,-999.0,49,-99.99,,,0.01,Acu-Link.com,2013-04-24 18:32:00,
2013-04-24 13:47:00,58.3,37.6,30.25,ESE,112,3.1,-999.0,46,-99.99,,,0.01,Acu-Link.com,2013-04-24 18:47:00,
2013-04-24 14:02:00,59.7,38.3,30.24,ESE,112,3.8,-999.0,45,-99.99,,,0.01,Acu-Link.com,2013-04-24 19:02:00,
2013-04-24 14:17:00,60.1,38.1,30.24,SW,225,2.7,-999.0,44,-99.99,,,0.01,Acu-Link.com,2013-04-24 19:17:00,
2013-04-24 14:33:00,59.7,37.8,30.24,ESE,112,2.2,-999.0,44,-99.99,,,0.01,Acu-Link.com,2013-04-24 19:33:00,
2013-04-24 14:48:00,61.3,36.8,30.24,South,180,5.1,-999.0,40,-99.99,,,0.01,Acu-Link.com,2013-04-24 19:48:00,
2013-04-24 15:03:00,61.9,37.3,30.23,South,180,3.1,-999.0,40,-99.99,,,0.01,Acu-Link.com,2013-04-24 20:03:00,
2013-04-24 15:18:00,63.3,37.3,30.23,South,180,2.2,-999.0,38,-99.99,,,0.01,Acu-Link.com,2013-04-24 20:18:00,
2013-04-24 15:34:00,61.9,37.3,30.23,SSW,202,1.6,-999.0,40,-99.99,,,0.01,Acu-Link.com,2013-04-24 20:34:00,
2013-04-24 15:49:00,64.8,37.9,30.21,WNW,292,2.7,-999.0,37,-99.99,,,0.01,Acu-Link.com,2013-04-24 20:49:00,
2013-04-24 16:04:00,62.6,36.0,30.21,SSW,202,1.6,-999.0,37,-99.99,,,0.01,Acu-Link.com,2013-04-24 21:04:00,
2013-04-24 16:19:00,63.5,36.8,30.21,SSW,202,1.6,-999.0,37,-99.99,,,0.01,Acu-Link.com,2013-04-24 21:19:00,
2013-04-24 16:34:00,63.5,36.8,30.20,West,270,2.7,-999.0,37,-99.99,,,0.01,Acu-Link.com,2013-04-24 21:34:00,
2013-04-24 16:50:00,63.3,35.9,30.20,SW,225,1.6,-999.0,36,-99.99,,,0.01,Acu-Link.com,2013-04-24 21:50:00,
2013-04-24 17:05:00,64.0,36.5,30.19,SSW,202,0.0,-999.0,36,-99.99,,,0.01,Acu-Link.com,2013-04-24 22:05:00,
2013-04-24 17:20:00,63.9,36.4,30.19,South,180,2.2,-999.0,36,-99.99,,,0.01,Acu-Link.com,2013-04-24 22:20:00,
2013-04-24 17:35:00,63.5,36.8,30.19,SE,135,0.0,-999.0,37,-99.99,,,0.01,Acu-Link.com,2013-04-24 22:35:00,
2013-04-24 17:50:00,65.1,36.8,30.19,West,270,1.1,-999.0,35,-99.99,,,0.01,Acu-Link.com,2013-04-24 22:50:00,
2013-04-24 18:06:00,64.0,36.5,30.19,ESE,112,1.6,-999.0,36,-99.99,,,0.01,Acu-Link.com,2013-04-24 23:06:00,
2013-04-24 18:21:00,64.8,36.5,30.19,South,180,0.0,-999.0,35,-99.99,,,0.01,Acu-Link.com,2013-04-24 23:21:00,
2013-04-24 18:36:00,63.9,36.4,30.19,SSW,202,1.1,-999.0,36,-99.99,,,0.01,Acu-Link.com,2013-04-24 23:36:00,
2013-04-24 18:51:00,63.1,36.4,30.19,SSE,157,2.2,-999.0,37,-99.99,,,0.01,Acu-Link.com,2013-04-24 23:51:00,
2013-04-24 19:06:00,61.7,36.5,30.19,WSW,247,0.0,-999.0,39,-99.99,,,0.01,Acu-Link.com,2013-04-25 00:06:00,
2013-04-24 19:22:00,60.4,36.6,30.19,SSW,202,0.0,-999.0,41,-99.99,,,0.01,Acu-Link.com,2013-04-25 00:22:00,
2013-04-24 19:37:00,60.1,35.7,30.20,South,180,0.0,-999.0,40,-99.99,,,0.01,Acu-Link.com,2013-04-25 00:37:00,
2013-04-24 19:52:00,59.5,37.0,30.20,SW,225,1.1,-999.0,43,-99.99,,,0.01,Acu-Link.com,2013-04-25 00:52:00,
2013-04-24 20:07:00,59.5,36.4,30.21,South,180,1.1,-999.0,42,-99.99,,,0.01,Acu-Link.com,2013-04-25 01:07:00,
2013-04-24 20:23:00,59.2,34.9,30.21,North,0,2.2,-999.0,40,-99.99,,,0.01,Acu-Link.com,2013-04-25 01:23:00,
2013-04-24 20:38:00,58.6,35.0,30.22,SSW,202,1.1,-999.0,41,-99.99,,,0.01,Acu-Link.com,2013-04-25 01:38:00,
2013-04-24 20:53:00,57.7,34.2,30.23,SW,225,0.0,-999.0,41,-99.99,,,0.01,Acu-Link.com,2013-04-25 01:53:00,
2013-04-24 21:08:00,57.0,33.6,30.23,SW,225,1.1,-999.0,41,-99.99,,,0.01,Acu-Link.com,2013-04-25 02:08:00,
2013-04-24 21:23:00,56.7,33.8,30.24,WSW,247,0.0,-999.0,42,-99.99,,,0.01,Acu-Link.com,2013-04-25 02:23:00,
2013-04-24 21:39:00,57.2,34.9,30.25,ESE,112,0.0,-999.0,43,-99.99,,,0.01,Acu-Link.com,2013-04-25 02:39:00,
2013-04-24 21:54:00,57.4,35.7,30.26,South,180,0.0,-999.0,44,-99.99,,,0.01,Acu-Link.com,2013-04-25 02:54:00,
2013-04-24 22:09:00,57.4,36.2,30.26,South,180,1.1,-999.0,45,-99.99,,,0.01,Acu-Link.com,2013-04-25 03:09:00,
2013-04-24 22:24:00,57.4,35.7,30.26,SSW,202,0.0,-999.0,44,-99.99,,,0.01,Acu-Link.com,2013-04-25 03:24:00,
2013-04-24 22:39:00,56.8,35.7,30.27,WSW,247,0.0,-999.0,45,-99.99,,,0.01,Acu-Link.com,2013-04-25 03:39:00,
2013-04-24 22:55:00,56.7,36.1,30.27,West,270,0.0,-999.0,46,-99.99,,,0.01,Acu-Link.com,2013-04-25 03:55:00,
2013-04-24 23:10:00,56.5,36.5,30.27,SW,225,0.0,-999.0,47,-99.99,,,0.01,Acu-Link.com,2013-04-25 04:10:00,
2013-04-24 23:25:00,55.8,36.9,30.28,SW,225,0.0,-999.0,49,-99.99,,,0.01,Acu-Link.com,2013-04-25 04:25:00,
2013-04-24 23:40:00,55.4,37.1,30.28,SW,225,0.0,-999.0,50,-99.99,,,0.01,Acu-Link.com,2013-04-25 04:40:00,
2013-04-24 23:56:00,55.0,37.2,30.28,West,270,0.0,-999.0,51,-99.99,,,0.01,Acu-Link.com,2013-04-25 04:56:00,